sensor_id;sensor_type;location;lat;lon;timestamp;P1;durP1;ratioP1;P2;durP2;ratioP2
18296;SDS011;18066;52.106;5.534;2023-09-19T00:02:21;5.38;;;1.10;;
18296;SDS011;18066;52.106;5.534;2023-09-19T00:04:48;5.00;;;1.23;;
18296;SDS011;18066;52.106;5.534;2023-09-19T00:07:15;5.30;;;1.40;;
18296;SDS011;18066;52.106;5.534;2023-09-19T00:09:42;2.78;;;1.10;;
18296;SDS011;18066;52.106;5.534;2023-09-19T00:12:09;5.70;;;1.23;;
18296;SDS011;18066;52.106;5.534;2023-09-19T00:14:38;6.55;;;1.70;;
18296;SDS011;18066;52.106;5.534;2023-09-19T00:17:06;2.03;;;1.00;;
18296;SDS011;18066;52.106;5.534;2023-09-19T00:19:35;2.85;;;1.00;;
18296;SDS011;18066;52.106;5.534;2023-09-19T00:22:03;5.40;;;1.13;;
18296;SDS011;18066;52.106;5.534;2023-09-19T00:24:30;6.68;;;1.65;;
18296;SDS011;18066;52.106;5.534;2023-09-19T00:26:57;5.60;;;1.63;;
18296;SDS011;18066;52.106;5.534;2023-09-19T00:29:24;3.70;;;1.30;;
18296;SDS011;18066;52.106;5.534;2023-09-19T00:31:54;2.65;;;1.30;;
18296;SDS011;18066;52.106;5.534;2023-09-19T00:34:22;4.15;;;1.40;;
18296;SDS011;18066;52.106;5.534;2023-09-19T00:36:50;7.95;;;1.13;;
18296;SDS011;18066;52.106;5.534;2023-09-19T00:39:19;6.57;;;1.20;;
18296;SDS011;18066;52.106;5.534;2023-09-19T00:41:47;4.53;;;1.65;;
18296;SDS011;18066;52.106;5.534;2023-09-19T00:44:14;2.92;;;1.77;;
18296;SDS011;18066;52.106;5.534;2023-09-19T00:46:42;3.05;;;1.17;;
18296;SDS011;18066;52.106;5.534;2023-09-19T00:49:12;5.00;;;1.23;;
18296;SDS011;18066;52.106;5.534;2023-09-19T00:51:41;1.90;;;1.25;;
18296;SDS011;18066;52.106;5.534;2023-09-19T00:54:12;4.93;;;1.38;;
18296;SDS011;18066;52.106;5.534;2023-09-19T00:56:43;4.85;;;1.13;;
18296;SDS011;18066;52.106;5.534;2023-09-19T00:59:10;5.00;;;1.52;;
18296;SDS011;18066;52.106;5.534;2023-09-19T01:01:37;5.72;;;1.38;;
18296;SDS011;18066;52.106;5.534;2023-09-19T01:04:05;3.58;;;1.35;;
18296;SDS011;18066;52.106;5.534;2023-09-19T01:06:32;4.20;;;1.23;;
18296;SDS011;18066;52.106;5.534;2023-09-19T01:09:01;11.10;;;1.80;;
18296;SDS011;18066;52.106;5.534;2023-09-19T01:11:31;5.07;;;1.30;;
18296;SDS011;18066;52.106;5.534;2023-09-19T01:14:06;5.10;;;1.35;;
18296;SDS011;18066;52.106;5.534;2023-09-19T01:16:44;7.32;;;1.35;;
18296;SDS011;18066;52.106;5.534;2023-09-19T01:19:32;4.90;;;1.27;;
18296;SDS011;18066;52.106;5.534;2023-09-19T01:22:21;8.35;;;2.40;;
18296;SDS011;18066;52.106;5.534;2023-09-19T01:25:03;3.00;;;1.55;;
18296;SDS011;18066;52.106;5.534;2023-09-19T01:27:52;6.13;;;1.58;;
18296;SDS011;18066;52.106;5.534;2023-09-19T01:30:35;6.85;;;1.70;;
18296;SDS011;18066;52.106;5.534;2023-09-19T01:33:05;7.97;;;2.13;;
18296;SDS011;18066;52.106;5.534;2023-09-19T01:35:33;5.85;;;1.25;;
18296;SDS011;18066;52.106;5.534;2023-09-19T01:38:04;4.47;;;1.23;;
18296;SDS011;18066;52.106;5.534;2023-09-19T01:40:32;6.85;;;1.60;;
18296;SDS011;18066;52.106;5.534;2023-09-19T01:43:02;6.20;;;1.80;;
18296;SDS011;18066;52.106;5.534;2023-09-19T01:45:41;7.45;;;1.98;;
18296;SDS011;18066;52.106;5.534;2023-09-19T01:48:15;5.95;;;1.48;;
18296;SDS011;18066;52.106;5.534;2023-09-19T01:50:54;6.40;;;1.75;;
18296;SDS011;18066;52.106;5.534;2023-09-19T01:53:26;5.75;;;1.73;;
18296;SDS011;18066;52.106;5.534;2023-09-19T01:55:55;7.82;;;1.80;;
18296;SDS011;18066;52.106;5.534;2023-09-19T01:58:26;13.65;;;1.58;;
18296;SDS011;18066;52.106;5.534;2023-09-19T02:01:00;6.03;;;1.67;;
18296;SDS011;18066;52.106;5.534;2023-09-19T02:03:30;9.65;;;1.88;;
18296;SDS011;18066;52.106;5.534;2023-09-19T02:05:59;6.18;;;1.30;;
18296;SDS011;18066;52.106;5.534;2023-09-19T02:08:26;9.88;;;1.75;;
18296;SDS011;18066;52.106;5.534;2023-09-19T02:10:52;15.27;;;2.50;;
18296;SDS011;18066;52.106;5.534;2023-09-19T02:13:20;8.35;;;1.88;;
18296;SDS011;18066;52.106;5.534;2023-09-19T02:15:49;5.00;;;1.75;;
18296;SDS011;18066;52.106;5.534;2023-09-19T02:18:17;11.77;;;2.00;;
18296;SDS011;18066;52.106;5.534;2023-09-19T02:20:44;5.90;;;2.08;;
18296;SDS011;18066;52.106;5.534;2023-09-19T02:23:11;7.30;;;1.73;;
18296;SDS011;18066;52.106;5.534;2023-09-19T02:25:40;6.25;;;1.77;;
18296;SDS011;18066;52.106;5.534;2023-09-19T02:28:08;6.63;;;1.40;;
18296;SDS011;18066;52.106;5.534;2023-09-19T02:30:35;17.88;;;1.65;;
18296;SDS011;18066;52.106;5.534;2023-09-19T02:33:02;15.63;;;2.00;;
18296;SDS011;18066;52.106;5.534;2023-09-19T02:35:31;9.55;;;2.22;;
18296;SDS011;18066;52.106;5.534;2023-09-19T02:38:00;10.40;;;1.77;;
18296;SDS011;18066;52.106;5.534;2023-09-19T02:40:27;8.02;;;1.42;;
18296;SDS011;18066;52.106;5.534;2023-09-19T02:42:55;7.35;;;1.85;;
18296;SDS011;18066;52.106;5.534;2023-09-19T02:45:24;11.32;;;1.65;;
18296;SDS011;18066;52.106;5.534;2023-09-19T02:47:51;12.63;;;1.58;;
18296;SDS011;18066;52.106;5.534;2023-09-19T02:50:18;9.93;;;1.77;;
18296;SDS011;18066;52.106;5.534;2023-09-19T02:52:46;7.07;;;1.38;;
18296;SDS011;18066;52.106;5.534;2023-09-19T02:55:14;10.77;;;1.73;;
18296;SDS011;18066;52.106;5.534;2023-09-19T02:57:47;9.38;;;1.83;;
18296;SDS011;18066;52.106;5.534;2023-09-19T03:00:15;4.97;;;1.70;;
18296;SDS011;18066;52.106;5.534;2023-09-19T03:02:45;9.90;;;1.83;;
18296;SDS011;18066;52.106;5.534;2023-09-19T03:05:12;5.60;;;1.60;;
18296;SDS011;18066;52.106;5.534;2023-09-19T03:07:40;7.25;;;1.58;;
18296;SDS011;18066;52.106;5.534;2023-09-19T03:10:10;10.00;;;1.75;;
18296;SDS011;18066;52.106;5.534;2023-09-19T03:12:36;6.97;;;1.83;;
18296;SDS011;18066;52.106;5.534;2023-09-19T03:15:05;7.88;;;1.95;;
18296;SDS011;18066;52.106;5.534;2023-09-19T03:17:33;8.80;;;1.95;;
18296;SDS011;18066;52.106;5.534;2023-09-19T03:20:01;4.60;;;2.05;;
18296;SDS011;18066;52.106;5.534;2023-09-19T03:22:29;16.67;;;2.90;;
18296;SDS011;18066;52.106;5.534;2023-09-19T03:24:56;8.85;;;1.40;;
18296;SDS011;18066;52.106;5.534;2023-09-19T03:27:24;6.18;;;1.55;;
18296;SDS011;18066;52.106;5.534;2023-09-19T03:29:52;4.28;;;1.42;;
18296;SDS011;18066;52.106;5.534;2023-09-19T03:32:18;5.07;;;1.88;;
18296;SDS011;18066;52.106;5.534;2023-09-19T03:34:45;8.57;;;1.65;;
18296;SDS011;18066;52.106;5.534;2023-09-19T03:37:13;7.57;;;2.08;;
18296;SDS011;18066;52.106;5.534;2023-09-19T03:39:41;8.48;;;1.70;;
18296;SDS011;18066;52.106;5.534;2023-09-19T03:42:07;6.10;;;1.30;;
18296;SDS011;18066;52.106;5.534;2023-09-19T03:44:36;6.82;;;1.50;;
18296;SDS011;18066;52.106;5.534;2023-09-19T03:47:03;7.57;;;1.70;;
18296;SDS011;18066;52.106;5.534;2023-09-19T03:49:32;8.45;;;1.73;;
18296;SDS011;18066;52.106;5.534;2023-09-19T03:51:59;6.82;;;1.98;;
18296;SDS011;18066;52.106;5.534;2023-09-19T03:54:26;11.15;;;2.17;;
18296;SDS011;18066;52.106;5.534;2023-09-19T03:56:52;4.95;;;1.48;;
18296;SDS011;18066;52.106;5.534;2023-09-19T03:59:19;18.58;;;2.03;;
18296;SDS011;18066;52.106;5.534;2023-09-19T04:01:48;6.93;;;1.70;;
18296;SDS011;18066;52.106;5.534;2023-09-19T04:04:15;5.03;;;1.30;;
18296;SDS011;18066;52.106;5.534;2023-09-19T04:06:43;3.95;;;1.30;;
18296;SDS011;18066;52.106;5.534;2023-09-19T04:09:10;8.80;;;1.63;;
18296;SDS011;18066;52.106;5.534;2023-09-19T04:11:37;2.97;;;1.23;;
18296;SDS011;18066;52.106;5.534;2023-09-19T04:14:04;6.15;;;1.58;;
18296;SDS011;18066;52.106;5.534;2023-09-19T04:16:31;5.70;;;1.63;;
18296;SDS011;18066;52.106;5.534;2023-09-19T04:18:59;7.60;;;1.52;;
18296;SDS011;18066;52.106;5.534;2023-09-19T04:21:26;8.25;;;1.77;;
18296;SDS011;18066;52.106;5.534;2023-09-19T04:23:53;5.47;;;1.20;;
18296;SDS011;18066;52.106;5.534;2023-09-19T04:26:20;8.52;;;1.38;;
18296;SDS011;18066;52.106;5.534;2023-09-19T04:28:47;5.07;;;1.33;;
18296;SDS011;18066;52.106;5.534;2023-09-19T04:31:13;5.78;;;1.23;;
18296;SDS011;18066;52.106;5.534;2023-09-19T04:33:41;2.47;;;1.02;;
18296;SDS011;18066;52.106;5.534;2023-09-19T04:36:10;7.60;;;1.70;;
18296;SDS011;18066;52.106;5.534;2023-09-19T04:38:38;9.32;;;1.63;;
18296;SDS011;18066;52.106;5.534;2023-09-19T04:41:05;4.70;;;1.73;;
18296;SDS011;18066;52.106;5.534;2023-09-19T04:43:31;9.02;;;2.13;;
18296;SDS011;18066;52.106;5.534;2023-09-19T04:45:58;10.30;;;1.80;;
18296;SDS011;18066;52.106;5.534;2023-09-19T04:48:25;7.15;;;1.88;;
18296;SDS011;18066;52.106;5.534;2023-09-19T04:50:54;7.53;;;1.63;;
18296;SDS011;18066;52.106;5.534;2023-09-19T04:53:22;9.40;;;1.75;;
18296;SDS011;18066;52.106;5.534;2023-09-19T04:55:49;11.80;;;1.65;;
18296;SDS011;18066;52.106;5.534;2023-09-19T04:58:18;7.68;;;1.67;;
18296;SDS011;18066;52.106;5.534;2023-09-19T05:00:45;9.15;;;1.85;;
18296;SDS011;18066;52.106;5.534;2023-09-19T05:03:12;8.20;;;1.73;;
18296;SDS011;18066;52.106;5.534;2023-09-19T05:05:39;4.75;;;1.33;;
18296;SDS011;18066;52.106;5.534;2023-09-19T05:08:06;5.82;;;1.67;;
18296;SDS011;18066;52.106;5.534;2023-09-19T05:10:35;9.05;;;1.63;;
18296;SDS011;18066;52.106;5.534;2023-09-19T05:13:03;8.90;;;2.08;;
18296;SDS011;18066;52.106;5.534;2023-09-19T05:15:30;6.82;;;1.98;;
18296;SDS011;18066;52.106;5.534;2023-09-19T05:17:57;6.07;;;1.17;;
18296;SDS011;18066;52.106;5.534;2023-09-19T05:20:24;10.30;;;1.50;;
18296;SDS011;18066;52.106;5.534;2023-09-19T05:22:57;6.10;;;1.77;;
18296;SDS011;18066;52.106;5.534;2023-09-19T05:25:26;7.03;;;2.10;;
18296;SDS011;18066;52.106;5.534;2023-09-19T05:27:56;11.43;;;1.88;;
18296;SDS011;18066;52.106;5.534;2023-09-19T05:30:24;5.63;;;1.20;;
18296;SDS011;18066;52.106;5.534;2023-09-19T05:32:52;10.30;;;1.88;;
18296;SDS011;18066;52.106;5.534;2023-09-19T05:35:20;4.28;;;1.52;;
18296;SDS011;18066;52.106;5.534;2023-09-19T05:37:47;4.20;;;1.27;;
18296;SDS011;18066;52.106;5.534;2023-09-19T05:40:15;7.95;;;2.03;;
18296;SDS011;18066;52.106;5.534;2023-09-19T05:42:42;8.15;;;2.08;;
18296;SDS011;18066;52.106;5.534;2023-09-19T05:45:11;6.40;;;1.52;;
18296;SDS011;18066;52.106;5.534;2023-09-19T05:47:38;7.38;;;1.38;;
18296;SDS011;18066;52.106;5.534;2023-09-19T05:50:08;8.10;;;1.92;;
18296;SDS011;18066;52.106;5.534;2023-09-19T05:52:35;7.75;;;1.65;;
18296;SDS011;18066;52.106;5.534;2023-09-19T05:55:03;9.63;;;2.25;;
18296;SDS011;18066;52.106;5.534;2023-09-19T05:57:32;12.73;;;1.75;;
18296;SDS011;18066;52.106;5.534;2023-09-19T05:59:59;8.85;;;1.48;;
18296;SDS011;18066;52.106;5.534;2023-09-19T06:02:27;13.23;;;2.30;;
18296;SDS011;18066;52.106;5.534;2023-09-19T06:04:55;3.13;;;1.40;;
18296;SDS011;18066;52.106;5.534;2023-09-19T06:07:22;8.88;;;1.70;;
18296;SDS011;18066;52.106;5.534;2023-09-19T06:09:51;6.28;;;1.42;;
18296;SDS011;18066;52.106;5.534;2023-09-19T06:12:18;13.85;;;1.98;;
18296;SDS011;18066;52.106;5.534;2023-09-19T06:14:45;6.38;;;1.70;;
18296;SDS011;18066;52.106;5.534;2023-09-19T06:17:13;11.93;;;1.63;;
18296;SDS011;18066;52.106;5.534;2023-09-19T06:19:42;10.15;;;1.80;;
18296;SDS011;18066;52.106;5.534;2023-09-19T06:22:11;7.82;;;1.58;;
18296;SDS011;18066;52.106;5.534;2023-09-19T06:24:41;9.88;;;1.40;;
18296;SDS011;18066;52.106;5.534;2023-09-19T06:27:08;7.13;;;1.65;;
18296;SDS011;18066;52.106;5.534;2023-09-19T06:29:35;13.77;;;1.73;;
18296;SDS011;18066;52.106;5.534;2023-09-19T06:32:02;9.20;;;2.03;;
18296;SDS011;18066;52.106;5.534;2023-09-19T06:34:33;5.97;;;1.50;;
18296;SDS011;18066;52.106;5.534;2023-09-19T06:37:01;6.75;;;1.30;;
18296;SDS011;18066;52.106;5.534;2023-09-19T06:39:29;5.88;;;1.42;;
18296;SDS011;18066;52.106;5.534;2023-09-19T06:41:56;4.22;;;1.52;;
18296;SDS011;18066;52.106;5.534;2023-09-19T06:44:25;11.05;;;1.80;;
18296;SDS011;18066;52.106;5.534;2023-09-19T06:46:54;8.25;;;1.83;;
18296;SDS011;18066;52.106;5.534;2023-09-19T06:49:21;7.22;;;1.40;;
18296;SDS011;18066;52.106;5.534;2023-09-19T06:51:48;10.98;;;1.88;;
18296;SDS011;18066;52.106;5.534;2023-09-19T06:54:16;8.05;;;1.63;;
18296;SDS011;18066;52.106;5.534;2023-09-19T06:56:43;11.38;;;2.13;;
18296;SDS011;18066;52.106;5.534;2023-09-19T06:59:10;6.22;;;1.67;;
18296;SDS011;18066;52.106;5.534;2023-09-19T07:01:39;15.68;;;1.90;;
18296;SDS011;18066;52.106;5.534;2023-09-19T07:04:06;11.35;;;2.20;;
18296;SDS011;18066;52.106;5.534;2023-09-19T07:06:33;10.00;;;1.70;;
18296;SDS011;18066;52.106;5.534;2023-09-19T07:08:59;9.13;;;1.23;;
18296;SDS011;18066;52.106;5.534;2023-09-19T07:11:28;6.55;;;1.30;;
18296;SDS011;18066;52.106;5.534;2023-09-19T07:13:57;7.60;;;1.63;;
18296;SDS011;18066;52.106;5.534;2023-09-19T07:16:24;4.47;;;1.23;;
18296;SDS011;18066;52.106;5.534;2023-09-19T07:18:55;5.85;;;1.60;;
18296;SDS011;18066;52.106;5.534;2023-09-19T07:21:22;9.80;;;1.75;;
18296;SDS011;18066;52.106;5.534;2023-09-19T07:23:49;15.73;;;2.13;;
18296;SDS011;18066;52.106;5.534;2023-09-19T07:26:16;8.77;;;1.60;;
18296;SDS011;18066;52.106;5.534;2023-09-19T07:28:44;12.50;;;2.13;;
18296;SDS011;18066;52.106;5.534;2023-09-19T07:31:11;9.73;;;1.73;;
18296;SDS011;18066;52.106;5.534;2023-09-19T07:33:39;10.57;;;2.15;;
18296;SDS011;18066;52.106;5.534;2023-09-19T07:36:09;12.50;;;1.90;;
18296;SDS011;18066;52.106;5.534;2023-09-19T07:38:36;11.48;;;1.63;;
18296;SDS011;18066;52.106;5.534;2023-09-19T07:41:03;11.63;;;2.00;;
18296;SDS011;18066;52.106;5.534;2023-09-19T07:43:30;6.57;;;1.30;;
18296;SDS011;18066;52.106;5.534;2023-09-19T07:46:03;5.65;;;1.65;;
18296;SDS011;18066;52.106;5.534;2023-09-19T07:48:32;5.30;;;1.40;;
18296;SDS011;18066;52.106;5.534;2023-09-19T07:51:01;9.43;;;2.33;;
18296;SDS011;18066;52.106;5.534;2023-09-19T07:53:28;12.35;;;2.15;;
18296;SDS011;18066;52.106;5.534;2023-09-19T07:56:01;15.85;;;2.15;;
18296;SDS011;18066;52.106;5.534;2023-09-19T07:58:28;3.88;;;1.30;;
18296;SDS011;18066;52.106;5.534;2023-09-19T08:00:56;8.95;;;1.95;;
18296;SDS011;18066;52.106;5.534;2023-09-19T08:03:29;10.95;;;1.52;;
18296;SDS011;18066;52.106;5.534;2023-09-19T08:05:56;10.10;;;1.67;;
18296;SDS011;18066;52.106;5.534;2023-09-19T08:08:24;8.85;;;1.70;;
18296;SDS011;18066;52.106;5.534;2023-09-19T08:10:52;8.38;;;1.90;;
18296;SDS011;18066;52.106;5.534;2023-09-19T08:13:21;18.02;;;2.50;;
18296;SDS011;18066;52.106;5.534;2023-09-19T08:15:48;5.95;;;1.55;;
18296;SDS011;18066;52.106;5.534;2023-09-19T08:18:16;13.40;;;1.50;;
18296;SDS011;18066;52.106;5.534;2023-09-19T08:20:48;11.90;;;1.90;;
18296;SDS011;18066;52.106;5.534;2023-09-19T08:23:15;5.88;;;2.10;;
18296;SDS011;18066;52.106;5.534;2023-09-19T08:25:45;6.85;;;1.50;;
18296;SDS011;18066;52.106;5.534;2023-09-19T08:28:11;12.35;;;2.15;;
18296;SDS011;18066;52.106;5.534;2023-09-19T08:30:42;9.73;;;2.15;;
18296;SDS011;18066;52.106;5.534;2023-09-19T08:33:09;9.07;;;2.13;;
18296;SDS011;18066;52.106;5.534;2023-09-19T08:35:36;10.07;;;1.92;;
18296;SDS011;18066;52.106;5.534;2023-09-19T08:38:06;11.65;;;1.88;;
18296;SDS011;18066;52.106;5.534;2023-09-19T08:40:33;11.35;;;1.90;;
18296;SDS011;18066;52.106;5.534;2023-09-19T08:43:04;10.95;;;2.40;;
18296;SDS011;18066;52.106;5.534;2023-09-19T08:45:32;11.85;;;2.45;;
18296;SDS011;18066;52.106;5.534;2023-09-19T08:48:00;14.63;;;2.30;;
18296;SDS011;18066;52.106;5.534;2023-09-19T08:50:39;10.18;;;2.08;;
18296;SDS011;18066;52.106;5.534;2023-09-19T08:53:11;8.85;;;2.03;;
18296;SDS011;18066;52.106;5.534;2023-09-19T08:55:42;13.98;;;2.10;;
18296;SDS011;18066;52.106;5.534;2023-09-19T08:58:13;8.35;;;2.53;;
18296;SDS011;18066;52.106;5.534;2023-09-19T09:00:46;7.85;;;2.00;;
18296;SDS011;18066;52.106;5.534;2023-09-19T09:03:16;16.58;;;2.30;;
18296;SDS011;18066;52.106;5.534;2023-09-19T09:05:46;5.38;;;1.63;;
18296;SDS011;18066;52.106;5.534;2023-09-19T09:08:17;10.10;;;2.38;;
18296;SDS011;18066;52.106;5.534;2023-09-19T09:10:46;7.28;;;1.48;;
18296;SDS011;18066;52.106;5.534;2023-09-19T09:13:13;9.15;;;1.75;;
18296;SDS011;18066;52.106;5.534;2023-09-19T09:15:41;9.63;;;2.05;;
18296;SDS011;18066;52.106;5.534;2023-09-19T09:18:10;8.90;;;2.00;;
18296;SDS011;18066;52.106;5.534;2023-09-19T09:20:36;6.10;;;1.77;;
18296;SDS011;18066;52.106;5.534;2023-09-19T09:23:03;6.07;;;1.58;;
18296;SDS011;18066;52.106;5.534;2023-09-19T09:25:47;10.30;;;2.10;;
18296;SDS011;18066;52.106;5.534;2023-09-19T09:28:20;15.63;;;1.85;;
18296;SDS011;18066;52.106;5.534;2023-09-19T09:30:47;10.65;;;1.88;;
18296;SDS011;18066;52.106;5.534;2023-09-19T09:33:15;8.65;;;2.17;;
18296;SDS011;18066;52.106;5.534;2023-09-19T09:35:49;3.88;;;1.40;;
18296;SDS011;18066;52.106;5.534;2023-09-19T09:38:18;7.80;;;1.45;;
18296;SDS011;18066;52.106;5.534;2023-09-19T09:40:47;13.50;;;2.20;;
18296;SDS011;18066;52.106;5.534;2023-09-19T09:43:25;7.57;;;1.65;;
18296;SDS011;18066;52.106;5.534;2023-09-19T09:49:05;5.05;;;1.70;;
18296;SDS011;18066;52.106;5.534;2023-09-19T09:51:41;10.23;;;1.92;;
18296;SDS011;18066;52.106;5.534;2023-09-19T09:54:11;8.00;;;1.65;;
18296;SDS011;18066;52.106;5.534;2023-09-19T09:56:52;8.27;;;1.65;;
18296;SDS011;18066;52.106;5.534;2023-09-19T09:59:39;9.65;;;2.25;;
18296;SDS011;18066;52.106;5.534;2023-09-19T10:02:12;9.70;;;1.50;;
18296;SDS011;18066;52.106;5.534;2023-09-19T10:04:46;7.72;;;1.55;;
18296;SDS011;18066;52.106;5.534;2023-09-19T10:07:24;9.90;;;2.10;;
18296;SDS011;18066;52.106;5.534;2023-09-19T10:09:57;6.78;;;1.88;;
18296;SDS011;18066;52.106;5.534;2023-09-19T10:12:37;10.88;;;1.70;;
18296;SDS011;18066;52.106;5.534;2023-09-19T10:15:07;10.50;;;1.60;;
18296;SDS011;18066;52.106;5.534;2023-09-19T10:17:40;5.45;;;1.40;;
18296;SDS011;18066;52.106;5.534;2023-09-19T10:20:11;8.55;;;1.50;;
18296;SDS011;18066;52.106;5.534;2023-09-19T10:22:49;7.13;;;1.80;;
18296;SDS011;18066;52.106;5.534;2023-09-19T10:25:23;5.65;;;2.17;;
18296;SDS011;18066;52.106;5.534;2023-09-19T10:27:55;11.35;;;1.65;;
18296;SDS011;18066;52.106;5.534;2023-09-19T10:30:23;5.63;;;1.48;;
18296;SDS011;18066;52.106;5.534;2023-09-19T10:33:02;7.63;;;1.60;;
18296;SDS011;18066;52.106;5.534;2023-09-19T10:35:30;10.75;;;1.63;;
18296;SDS011;18066;52.106;5.534;2023-09-19T10:37:59;11.20;;;2.05;;
18296;SDS011;18066;52.106;5.534;2023-09-19T10:40:28;8.45;;;1.63;;
18296;SDS011;18066;52.106;5.534;2023-09-19T10:43:02;9.70;;;1.70;;
18296;SDS011;18066;52.106;5.534;2023-09-19T10:45:31;4.82;;;1.63;;
18296;SDS011;18066;52.106;5.534;2023-09-19T10:47:58;7.60;;;1.63;;
18296;SDS011;18066;52.106;5.534;2023-09-19T10:50:27;8.93;;;2.28;;
18296;SDS011;18066;52.106;5.534;2023-09-19T10:52:59;7.20;;;1.20;;
18296;SDS011;18066;52.106;5.534;2023-09-19T10:55:30;7.80;;;1.55;;
18296;SDS011;18066;52.106;5.534;2023-09-19T10:57:58;6.90;;;1.50;;
18296;SDS011;18066;52.106;5.534;2023-09-19T11:00:53;10.35;;;2.17;;
18296;SDS011;18066;52.106;5.534;2023-09-19T11:03:21;5.28;;;1.85;;
18296;SDS011;18066;52.106;5.534;2023-09-19T11:06:09;5.63;;;1.67;;
18296;SDS011;18066;52.106;5.534;2023-09-19T11:08:57;7.22;;;1.70;;
18296;SDS011;18066;52.106;5.534;2023-09-19T11:11:42;8.10;;;1.90;;
18296;SDS011;18066;52.106;5.534;2023-09-19T11:14:37;6.10;;;1.50;;
18296;SDS011;18066;52.106;5.534;2023-09-19T11:20:18;3.60;;;1.73;;
18296;SDS011;18066;52.106;5.534;2023-09-19T11:25:43;3.95;;;1.60;;
18296;SDS011;18066;52.106;5.534;2023-09-19T11:28:29;6.45;;;1.98;;
18296;SDS011;18066;52.106;5.534;2023-09-19T11:30:57;2.95;;;1.10;;
18296;SDS011;18066;52.106;5.534;2023-09-19T11:33:25;7.50;;;1.60;;
18296;SDS011;18066;52.106;5.534;2023-09-19T11:36:03;4.80;;;1.60;;
18296;SDS011;18066;52.106;5.534;2023-09-19T11:41:36;12.38;;;1.83;;
18296;SDS011;18066;52.106;5.534;2023-09-19T11:47:01;4.10;;;1.58;;
18296;SDS011;18066;52.106;5.534;2023-09-19T11:49:31;2.45;;;1.00;;
18296;SDS011;18066;52.106;5.534;2023-09-19T11:52:00;8.50;;;1.52;;
18296;SDS011;18066;52.106;5.534;2023-09-19T11:54:33;3.33;;;1.10;;
18296;SDS011;18066;52.106;5.534;2023-09-19T11:57:05;4.50;;;1.08;;
18296;SDS011;18066;52.106;5.534;2023-09-19T11:59:37;4.78;;;1.10;;
18296;SDS011;18066;52.106;5.534;2023-09-19T12:02:05;6.95;;;1.42;;
18296;SDS011;18066;52.106;5.534;2023-09-19T12:04:35;8.27;;;1.30;;
18296;SDS011;18066;52.106;5.534;2023-09-19T12:07:04;1.25;;;0.93;;
18296;SDS011;18066;52.106;5.534;2023-09-19T12:09:36;6.07;;;1.38;;
18296;SDS011;18066;52.106;5.534;2023-09-19T12:12:09;2.13;;;0.85;;
18296;SDS011;18066;52.106;5.534;2023-09-19T12:14:37;6.45;;;0.80;;
18296;SDS011;18066;52.106;5.534;2023-09-19T12:17:06;3.45;;;0.82;;
18296;SDS011;18066;52.106;5.534;2023-09-19T12:19:35;3.10;;;0.60;;
18296;SDS011;18066;52.106;5.534;2023-09-19T12:22:03;8.32;;;1.10;;
18296;SDS011;18066;52.106;5.534;2023-09-19T12:24:30;2.05;;;0.93;;
18296;SDS011;18066;52.106;5.534;2023-09-19T12:27:02;0.90;;;0.50;;
18296;SDS011;18066;52.106;5.534;2023-09-19T12:29:32;2.85;;;1.10;;
18296;SDS011;18066;52.106;5.534;2023-09-19T12:32:09;4.10;;;0.85;;
18296;SDS011;18066;52.106;5.534;2023-09-19T12:34:38;2.60;;;0.93;;
18296;SDS011;18066;52.106;5.534;2023-09-19T12:37:07;2.97;;;1.15;;
18296;SDS011;18066;52.106;5.534;2023-09-19T12:39:41;5.78;;;0.90;;
18296;SDS011;18066;52.106;5.534;2023-09-19T12:42:11;4.55;;;0.80;;
18296;SDS011;18066;52.106;5.534;2023-09-19T12:44:40;3.63;;;0.88;;
18296;SDS011;18066;52.106;5.534;2023-09-19T12:47:10;4.60;;;0.93;;
18296;SDS011;18066;52.106;5.534;2023-09-19T12:52:43;1.45;;;0.70;;
18296;SDS011;18066;52.106;5.534;2023-09-19T12:55:22;5.47;;;0.80;;
18296;SDS011;18066;52.106;5.534;2023-09-19T12:57:59;2.13;;;0.80;;
18296;SDS011;18066;52.106;5.534;2023-09-19T13:00:40;5.93;;;1.27;;
18296;SDS011;18066;52.106;5.534;2023-09-19T13:03:11;2.88;;;0.80;;
18296;SDS011;18066;52.106;5.534;2023-09-19T13:05:49;6.43;;;0.98;;
18296;SDS011;18066;52.106;5.534;2023-09-19T13:08:17;5.38;;;1.10;;
18296;SDS011;18066;52.106;5.534;2023-09-19T13:11:04;4.68;;;1.40;;
18296;SDS011;18066;52.106;5.534;2023-09-19T13:13:35;5.70;;;1.05;;
18296;SDS011;18066;52.106;5.534;2023-09-19T13:16:03;7.68;;;1.05;;
18296;SDS011;18066;52.106;5.534;2023-09-19T13:18:33;4.78;;;0.65;;
18296;SDS011;18066;52.106;5.534;2023-09-19T13:21:13;7.20;;;1.17;;
18296;SDS011;18066;52.106;5.534;2023-09-19T13:23:50;2.45;;;0.77;;
18296;SDS011;18066;52.106;5.534;2023-09-19T13:26:17;3.20;;;0.88;;
18296;SDS011;18066;52.106;5.534;2023-09-19T13:28:44;3.97;;;0.90;;
18296;SDS011;18066;52.106;5.534;2023-09-19T13:31:13;4.03;;;1.17;;
18296;SDS011;18066;52.106;5.534;2023-09-19T13:33:42;2.47;;;1.20;;
18296;SDS011;18066;52.106;5.534;2023-09-19T13:36:10;1.40;;;0.70;;
18296;SDS011;18066;52.106;5.534;2023-09-19T13:38:39;2.15;;;0.70;;
18296;SDS011;18066;52.106;5.534;2023-09-19T13:41:08;4.68;;;0.77;;
18296;SDS011;18066;52.106;5.534;2023-09-19T13:43:36;10.00;;;1.52;;
18296;SDS011;18066;52.106;5.534;2023-09-19T13:46:03;2.60;;;1.00;;
18296;SDS011;18066;52.106;5.534;2023-09-19T13:48:32;4.35;;;0.90;;
18296;SDS011;18066;52.106;5.534;2023-09-19T13:51:01;1.08;;;0.70;;
18296;SDS011;18066;52.106;5.534;2023-09-19T13:53:28;3.78;;;0.85;;
18296;SDS011;18066;52.106;5.534;2023-09-19T13:55:56;2.42;;;0.68;;
18296;SDS011;18066;52.106;5.534;2023-09-19T13:58:23;6.57;;;0.95;;
18296;SDS011;18066;52.106;5.534;2023-09-19T14:00:52;1.38;;;0.60;;
18296;SDS011;18066;52.106;5.534;2023-09-19T14:03:21;1.52;;;0.55;;
18296;SDS011;18066;52.106;5.534;2023-09-19T14:05:49;2.70;;;0.77;;
18296;SDS011;18066;52.106;5.534;2023-09-19T14:08:16;4.85;;;0.68;;
18296;SDS011;18066;52.106;5.534;2023-09-19T14:10:43;1.50;;;0.68;;
18296;SDS011;18066;52.106;5.534;2023-09-19T14:13:12;2.88;;;0.85;;
18296;SDS011;18066;52.106;5.534;2023-09-19T14:15:40;3.40;;;0.90;;
18296;SDS011;18066;52.106;5.534;2023-09-19T14:18:07;2.08;;;0.75;;
18296;SDS011;18066;52.106;5.534;2023-09-19T14:20:37;2.20;;;0.73;;
18296;SDS011;18066;52.106;5.534;2023-09-19T14:23:04;5.35;;;1.08;;
18296;SDS011;18066;52.106;5.534;2023-09-19T14:25:33;3.78;;;0.90;;
18296;SDS011;18066;52.106;5.534;2023-09-19T14:28:00;2.13;;;0.50;;
18296;SDS011;18066;52.106;5.534;2023-09-19T14:30:28;3.88;;;0.75;;
18296;SDS011;18066;52.106;5.534;2023-09-19T14:32:55;3.53;;;0.73;;
18296;SDS011;18066;52.106;5.534;2023-09-19T14:35:23;10.32;;;1.63;;
18296;SDS011;18066;52.106;5.534;2023-09-19T14:37:50;2.03;;;0.80;;
18296;SDS011;18066;52.106;5.534;2023-09-19T14:40:17;4.30;;;1.08;;
18296;SDS011;18066;52.106;5.534;2023-09-19T14:42:43;5.05;;;0.80;;
18296;SDS011;18066;52.106;5.534;2023-09-19T14:45:11;7.70;;;1.00;;
18296;SDS011;18066;52.106;5.534;2023-09-19T14:47:43;1.08;;;0.60;;
18296;SDS011;18066;52.106;5.534;2023-09-19T14:50:10;4.68;;;1.17;;
18296;SDS011;18066;52.106;5.534;2023-09-19T14:52:38;5.35;;;1.30;;
18296;SDS011;18066;52.106;5.534;2023-09-19T14:55:06;3.30;;;1.08;;
18296;SDS011;18066;52.106;5.534;2023-09-19T14:57:34;1.95;;;0.85;;
18296;SDS011;18066;52.106;5.534;2023-09-19T15:00:05;3.75;;;0.70;;
18296;SDS011;18066;52.106;5.534;2023-09-19T15:02:38;4.65;;;0.95;;
18296;SDS011;18066;52.106;5.534;2023-09-19T15:05:08;2.80;;;0.90;;
18296;SDS011;18066;52.106;5.534;2023-09-19T15:07:36;8.00;;;1.33;;
18296;SDS011;18066;52.106;5.534;2023-09-19T15:10:04;4.78;;;0.90;;
18296;SDS011;18066;52.106;5.534;2023-09-19T15:12:34;3.95;;;1.20;;
18296;SDS011;18066;52.106;5.534;2023-09-19T15:15:03;6.68;;;1.30;;
18296;SDS011;18066;52.106;5.534;2023-09-19T15:17:32;4.63;;;1.33;;
18296;SDS011;18066;52.106;5.534;2023-09-19T15:19:59;5.28;;;1.05;;